sensor_id;sensor_type;location;lat;lon;timestamp;P1;durP1;ratioP1;P2;durP2;ratioP2
4957;SDS011;2494;51.872;9.688;2023-07-29T00:00:50;2.30;;;2.10;;
4957;SDS011;2494;51.872;9.688;2023-07-29T00:03:35;2.30;;;2.20;;
4957;SDS011;2494;51.872;9.688;2023-07-29T00:06:22;4.87;;;1.93;;
4957;SDS011;2494;51.872;9.688;2023-07-29T00:09:07;2.30;;;2.10;;
4957;SDS011;2494;51.872;9.688;2023-07-29T00:11:52;2.33;;;2.13;;
4957;SDS011;2494;51.872;9.688;2023-07-29T00:14:37;2.00;;;1.90;;
4957;SDS011;2494;51.872;9.688;2023-07-29T00:17:22;2.33;;;2.23;;
4957;SDS011;2494;51.872;9.688;2023-07-29T00:20:07;2.27;;;2.07;;
4957;SDS011;2494;51.872;9.688;2023-07-29T00:22:53;2.70;;;2.50;;
4957;SDS011;2494;51.872;9.688;2023-07-29T00:25:38;2.00;;;1.90;;
4957;SDS011;2494;51.872;9.688;2023-07-29T00:28:23;2.67;;;2.47;;
4957;SDS011;2494;51.872;9.688;2023-07-29T00:31:08;2.93;;;2.40;;
4957;SDS011;2494;51.872;9.688;2023-07-29T00:33:54;3.37;;;3.00;;
4957;SDS011;2494;51.872;9.688;2023-07-29T00:36:39;2.73;;;2.40;;
4957;SDS011;2494;51.872;9.688;2023-07-29T00:39:25;3.70;;;3.50;;
4957;SDS011;2494;51.872;9.688;2023-07-29T00:42:10;4.80;;;3.60;;
4957;SDS011;2494;51.872;9.688;2023-07-29T00:44:55;3.37;;;2.87;;
4957;SDS011;2494;51.872;9.688;2023-07-29T00:47:40;2.90;;;2.70;;
4957;SDS011;2494;51.872;9.688;2023-07-29T00:50:26;3.00;;;2.80;;
4957;SDS011;2494;51.872;9.688;2023-07-29T00:53:12;2.30;;;2.20;;
4957;SDS011;2494;51.872;9.688;2023-07-29T00:55:58;2.60;;;2.40;;
4957;SDS011;2494;51.872;9.688;2023-07-29T00:58:44;2.70;;;2.50;;
4957;SDS011;2494;51.872;9.688;2023-07-29T01:01:29;2.87;;;2.67;;
4957;SDS011;2494;51.872;9.688;2023-07-29T01:04:14;4.30;;;2.90;;
4957;SDS011;2494;51.872;9.688;2023-07-29T01:07:01;3.10;;;2.57;;
4957;SDS011;2494;51.872;9.688;2023-07-29T01:09:50;2.73;;;2.53;;
4957;SDS011;2494;51.872;9.688;2023-07-29T01:12:40;3.30;;;3.07;;
4957;SDS011;2494;51.872;9.688;2023-07-29T01:15:28;3.33;;;2.70;;
4957;SDS011;2494;51.872;9.688;2023-07-29T01:18:18;3.47;;;2.83;;
4957;SDS011;2494;51.872;9.688;2023-07-29T01:21:07;2.93;;;2.70;;
4957;SDS011;2494;51.872;9.688;2023-07-29T01:23:54;3.70;;;3.40;;
4957;SDS011;2494;51.872;9.688;2023-07-29T01:26:42;5.40;;;3.00;;
4957;SDS011;2494;51.872;9.688;2023-07-29T01:29:27;4.10;;;2.30;;
4957;SDS011;2494;51.872;9.688;2023-07-29T01:32:14;2.70;;;2.50;;
4957;SDS011;2494;51.872;9.688;2023-07-29T01:35:03;2.30;;;2.20;;
4957;SDS011;2494;51.872;9.688;2023-07-29T01:37:51;2.33;;;2.23;;
4957;SDS011;2494;51.872;9.688;2023-07-29T01:40:39;3.30;;;3.10;;
4957;SDS011;2494;51.872;9.688;2023-07-29T01:43:24;3.03;;;2.83;;
4957;SDS011;2494;51.872;9.688;2023-07-29T01:46:09;2.20;;;2.10;;
4957;SDS011;2494;51.872;9.688;2023-07-29T01:48:55;2.50;;;2.30;;
4957;SDS011;2494;51.872;9.688;2023-07-29T01:51:40;2.97;;;2.70;;
4957;SDS011;2494;51.872;9.688;2023-07-29T01:54:26;3.83;;;3.23;;
4957;SDS011;2494;51.872;9.688;2023-07-29T01:57:12;3.43;;;3.23;;
4957;SDS011;2494;51.872;9.688;2023-07-29T01:59:57;3.50;;;3.23;;
4957;SDS011;2494;51.872;9.688;2023-07-29T02:02:42;3.03;;;2.83;;
4957;SDS011;2494;51.872;9.688;2023-07-29T02:05:27;2.70;;;2.60;;
4957;SDS011;2494;51.872;9.688;2023-07-29T02:08:12;3.37;;;3.17;;
4957;SDS011;2494;51.872;9.688;2023-07-29T02:10:57;3.80;;;3.50;;
4957;SDS011;2494;51.872;9.688;2023-07-29T02:13:43;3.30;;;3.10;;
4957;SDS011;2494;51.872;9.688;2023-07-29T02:16:29;2.97;;;2.77;;
4957;SDS011;2494;51.872;9.688;2023-07-29T02:19:14;3.63;;;3.43;;
4957;SDS011;2494;51.872;9.688;2023-07-29T02:21:58;2.70;;;2.60;;
4957;SDS011;2494;51.872;9.688;2023-07-29T02:24:43;3.00;;;2.80;;
4957;SDS011;2494;51.872;9.688;2023-07-29T02:27:29;3.17;;;3.00;;
4957;SDS011;2494;51.872;9.688;2023-07-29T02:30:15;5.03;;;2.90;;
4957;SDS011;2494;51.872;9.688;2023-07-29T02:33:00;3.23;;;2.20;;
4957;SDS011;2494;51.872;9.688;2023-07-29T02:35:45;2.77;;;2.57;;
4957;SDS011;2494;51.872;9.688;2023-07-29T02:38:30;2.80;;;2.57;;
4957;SDS011;2494;51.872;9.688;2023-07-29T02:41:15;2.60;;;2.43;;
4957;SDS011;2494;51.872;9.688;2023-07-29T02:44:01;6.40;;;2.83;;
4957;SDS011;2494;51.872;9.688;2023-07-29T02:46:48;3.03;;;2.20;;
4957;SDS011;2494;51.872;9.688;2023-07-29T02:49:33;2.93;;;2.57;;
4957;SDS011;2494;51.872;9.688;2023-07-29T02:52:17;2.20;;;2.10;;
4957;SDS011;2494;51.872;9.688;2023-07-29T02:55:03;3.33;;;2.37;;
4957;SDS011;2494;51.872;9.688;2023-07-29T02:57:48;2.27;;;2.17;;
4957;SDS011;2494;51.872;9.688;2023-07-29T03:00:33;2.80;;;2.60;;
4957;SDS011;2494;51.872;9.688;2023-07-29T03:03:20;2.40;;;2.07;;
4957;SDS011;2494;51.872;9.688;2023-07-29T03:06:06;3.40;;;2.10;;
4957;SDS011;2494;51.872;9.688;2023-07-29T03:08:51;2.03;;;1.93;;
4957;SDS011;2494;51.872;9.688;2023-07-29T03:11:36;2.83;;;2.60;;
4957;SDS011;2494;51.872;9.688;2023-07-29T03:14:21;2.37;;;2.17;;
4957;SDS011;2494;51.872;9.688;2023-07-29T03:17:06;3.17;;;1.90;;
4957;SDS011;2494;51.872;9.688;2023-07-29T03:19:52;2.30;;;2.17;;
4957;SDS011;2494;51.872;9.688;2023-07-29T03:22:44;5.23;;;2.70;;
4957;SDS011;2494;51.872;9.688;2023-07-29T03:25:35;2.80;;;2.40;;
4957;SDS011;2494;51.872;9.688;2023-07-29T03:28:20;4.47;;;2.63;;
4957;SDS011;2494;51.872;9.688;2023-07-29T03:31:05;2.20;;;2.10;;
4957;SDS011;2494;51.872;9.688;2023-07-29T03:33:50;5.03;;;3.50;;
4957;SDS011;2494;51.872;9.688;2023-07-29T03:36:36;2.80;;;2.60;;
4957;SDS011;2494;51.872;9.688;2023-07-29T03:39:21;3.47;;;2.60;;
4957;SDS011;2494;51.872;9.688;2023-07-29T03:42:06;2.93;;;2.73;;
4957;SDS011;2494;51.872;9.688;2023-07-29T03:44:52;2.40;;;2.30;;
4957;SDS011;2494;51.872;9.688;2023-07-29T03:47:37;3.20;;;3.00;;
4957;SDS011;2494;51.872;9.688;2023-07-29T03:50:21;3.00;;;2.80;;
4957;SDS011;2494;51.872;9.688;2023-07-29T03:53:08;3.43;;;2.70;;
4957;SDS011;2494;51.872;9.688;2023-07-29T03:55:54;2.90;;;2.50;;
4957;SDS011;2494;51.872;9.688;2023-07-29T03:58:39;4.10;;;2.70;;
4957;SDS011;2494;51.872;9.688;2023-07-29T04:01:24;3.40;;;3.10;;
4957;SDS011;2494;51.872;9.688;2023-07-29T04:04:09;2.90;;;2.70;;
4957;SDS011;2494;51.872;9.688;2023-07-29T04:06:54;3.17;;;2.97;;
4957;SDS011;2494;51.872;9.688;2023-07-29T04:09:40;3.07;;;2.87;;
4957;SDS011;2494;51.872;9.688;2023-07-29T04:12:26;3.87;;;3.50;;
4957;SDS011;2494;51.872;9.688;2023-07-29T04:15:12;4.10;;;3.90;;
4957;SDS011;2494;51.872;9.688;2023-07-29T04:17:57;3.67;;;3.47;;
4957;SDS011;2494;51.872;9.688;2023-07-29T04:20:42;3.33;;;3.13;;
4957;SDS011;2494;51.872;9.688;2023-07-29T04:23:27;3.80;;;3.37;;
4957;SDS011;2494;51.872;9.688;2023-07-29T04:26:13;4.57;;;4.27;;
4957;SDS011;2494;51.872;9.688;2023-07-29T04:28:58;3.63;;;3.10;;
4957;SDS011;2494;51.872;9.688;2023-07-29T04:31:43;5.73;;;4.57;;
4957;SDS011;2494;51.872;9.688;2023-07-29T04:34:28;4.43;;;3.60;;
4957;SDS011;2494;51.872;9.688;2023-07-29T04:37:13;4.20;;;3.90;;
4957;SDS011;2494;51.872;9.688;2023-07-29T04:39:58;8.00;;;4.53;;
4957;SDS011;2494;51.872;9.688;2023-07-29T04:42:45;7.90;;;5.10;;
4957;SDS011;2494;51.872;9.688;2023-07-29T04:45:30;5.30;;;4.90;;
4957;SDS011;2494;51.872;9.688;2023-07-29T04:48:15;4.90;;;4.60;;
4957;SDS011;2494;51.872;9.688;2023-07-29T04:51:00;6.30;;;4.97;;
4957;SDS011;2494;51.872;9.688;2023-07-29T04:53:45;5.80;;;5.40;;
4957;SDS011;2494;51.872;9.688;2023-07-29T04:56:30;6.17;;;5.67;;
4957;SDS011;2494;51.872;9.688;2023-07-29T04:59:16;5.90;;;5.20;;
4957;SDS011;2494;51.872;9.688;2023-07-29T05:02:01;6.17;;;5.67;;
4957;SDS011;2494;51.872;9.688;2023-07-29T05:04:47;6.90;;;5.50;;
4957;SDS011;2494;51.872;9.688;2023-07-29T05:07:32;6.10;;;5.80;;
4957;SDS011;2494;51.872;9.688;2023-07-29T05:10:17;6.20;;;5.77;;
4957;SDS011;2494;51.872;9.688;2023-07-29T05:13:01;7.03;;;6.50;;
4957;SDS011;2494;51.872;9.688;2023-07-29T05:15:48;6.63;;;6.20;;
4957;SDS011;2494;51.872;9.688;2023-07-29T05:18:33;6.90;;;6.30;;
4957;SDS011;2494;51.872;9.688;2023-07-29T05:21:18;6.43;;;6.00;;
4957;SDS011;2494;51.872;9.688;2023-07-29T05:24:03;8.57;;;6.13;;
4957;SDS011;2494;51.872;9.688;2023-07-29T05:26:48;13.53;;;5.80;;
4957;SDS011;2494;51.872;9.688;2023-07-29T05:29:33;7.20;;;5.57;;
4957;SDS011;2494;51.872;9.688;2023-07-29T05:32:20;5.83;;;4.70;;
4957;SDS011;2494;51.872;9.688;2023-07-29T05:35:05;3.57;;;3.37;;
4957;SDS011;2494;51.872;9.688;2023-07-29T05:37:50;2.80;;;2.60;;
4957;SDS011;2494;51.872;9.688;2023-07-29T05:40:35;2.17;;;2.07;;
4957;SDS011;2494;51.872;9.688;2023-07-29T05:43:21;1.83;;;1.73;;
4957;SDS011;2494;51.872;9.688;2023-07-29T05:46:06;1.70;;;1.60;;
4957;SDS011;2494;51.872;9.688;2023-07-29T05:48:52;1.90;;;1.67;;
4957;SDS011;2494;51.872;9.688;2023-07-29T05:51:37;1.43;;;1.30;;
4957;SDS011;2494;51.872;9.688;2023-07-29T05:54:22;1.83;;;1.13;;
4957;SDS011;2494;51.872;9.688;2023-07-29T05:57:07;1.73;;;1.50;;
4957;SDS011;2494;51.872;9.688;2023-07-29T05:59:52;1.80;;;1.30;;
4957;SDS011;2494;51.872;9.688;2023-07-29T06:02:37;1.80;;;1.67;;
4957;SDS011;2494;51.872;9.688;2023-07-29T06:05:24;2.00;;;1.90;;
4957;SDS011;2494;51.872;9.688;2023-07-29T06:08:10;2.93;;;2.40;;
4957;SDS011;2494;51.872;9.688;2023-07-29T06:10:55;2.70;;;2.60;;
4957;SDS011;2494;51.872;9.688;2023-07-29T06:13:40;2.90;;;2.70;;
4957;SDS011;2494;51.872;9.688;2023-07-29T06:16:25;2.73;;;2.50;;
4957;SDS011;2494;51.872;9.688;2023-07-29T06:19:10;3.47;;;3.27;;
4957;SDS011;2494;51.872;9.688;2023-07-29T06:21:56;4.43;;;3.97;;
4957;SDS011;2494;51.872;9.688;2023-07-29T06:24:41;3.40;;;3.10;;
4957;SDS011;2494;51.872;9.688;2023-07-29T06:27:26;2.87;;;2.77;;
4957;SDS011;2494;51.872;9.688;2023-07-29T06:30:11;3.23;;;3.03;;
4957;SDS011;2494;51.872;9.688;2023-07-29T06:32:56;4.17;;;3.90;;
4957;SDS011;2494;51.872;9.688;2023-07-29T06:35:41;3.77;;;3.47;;
4957;SDS011;2494;51.872;9.688;2023-07-29T06:38:28;3.90;;;3.70;;
4957;SDS011;2494;51.872;9.688;2023-07-29T06:41:13;4.50;;;4.10;;
4957;SDS011;2494;51.872;9.688;2023-07-29T06:43:58;4.90;;;3.50;;
4957;SDS011;2494;51.872;9.688;2023-07-29T06:46:43;3.90;;;3.70;;
4957;SDS011;2494;51.872;9.688;2023-07-29T06:49:28;3.60;;;3.40;;
4957;SDS011;2494;51.872;9.688;2023-07-29T06:52:13;2.70;;;2.50;;
4957;SDS011;2494;51.872;9.688;2023-07-29T06:54:59;2.90;;;2.70;;
4957;SDS011;2494;51.872;9.688;2023-07-29T06:57:44;2.20;;;2.10;;
4957;SDS011;2494;51.872;9.688;2023-07-29T07:00:29;2.50;;;2.40;;
4957;SDS011;2494;51.872;9.688;2023-07-29T07:03:15;2.60;;;2.40;;
4957;SDS011;2494;51.872;9.688;2023-07-29T07:05:59;2.30;;;2.20;;
4957;SDS011;2494;51.872;9.688;2023-07-29T07:08:44;2.83;;;2.63;;
4957;SDS011;2494;51.872;9.688;2023-07-29T07:11:31;3.63;;;2.60;;
4957;SDS011;2494;51.872;9.688;2023-07-29T07:14:16;3.43;;;2.90;;
4957;SDS011;2494;51.872;9.688;2023-07-29T07:17:01;2.37;;;2.27;;
4957;SDS011;2494;51.872;9.688;2023-07-29T07:19:46;3.17;;;2.97;;
4957;SDS011;2494;51.872;9.688;2023-07-29T07:22:31;3.33;;;3.00;;
4957;SDS011;2494;51.872;9.688;2023-07-29T07:25:16;2.70;;;2.50;;
4957;SDS011;2494;51.872;9.688;2023-07-29T07:28:03;3.07;;;2.87;;
4957;SDS011;2494;51.872;9.688;2023-07-29T07:30:48;3.20;;;3.00;;
4957;SDS011;2494;51.872;9.688;2023-07-29T07:33:33;4.03;;;3.00;;
4957;SDS011;2494;51.872;9.688;2023-07-29T07:36:18;2.70;;;2.50;;
4957;SDS011;2494;51.872;9.688;2023-07-29T07:39:03;3.90;;;3.60;;
4957;SDS011;2494;51.872;9.688;2023-07-29T07:41:48;2.87;;;2.67;;
4957;SDS011;2494;51.872;9.688;2023-07-29T07:44:34;3.83;;;3.63;;
4957;SDS011;2494;51.872;9.688;2023-07-29T07:47:19;3.00;;;2.80;;
4957;SDS011;2494;51.872;9.688;2023-07-29T07:50:05;3.33;;;3.13;;
4957;SDS011;2494;51.872;9.688;2023-07-29T07:52:50;2.57;;;2.47;;
4957;SDS011;2494;51.872;9.688;2023-07-29T07:55:35;3.10;;;2.90;;
4957;SDS011;2494;51.872;9.688;2023-07-29T07:58:20;3.43;;;3.23;;
4957;SDS011;2494;51.872;9.688;2023-07-29T08:01:07;3.17;;;2.97;;
4957;SDS011;2494;51.872;9.688;2023-07-29T08:03:52;3.43;;;3.23;;
4957;SDS011;2494;51.872;9.688;2023-07-29T08:06:37;3.07;;;2.87;;
4957;SDS011;2494;51.872;9.688;2023-07-29T08:09:22;3.60;;;3.40;;
4957;SDS011;2494;51.872;9.688;2023-07-29T08:12:07;5.10;;;2.90;;
4957;SDS011;2494;51.872;9.688;2023-07-29T08:14:52;3.40;;;3.20;;
4957;SDS011;2494;51.872;9.688;2023-07-29T08:17:39;3.30;;;2.80;;
4957;SDS011;2494;51.872;9.688;2023-07-29T08:20:23;2.37;;;2.27;;
4957;SDS011;2494;51.872;9.688;2023-07-29T08:23:08;2.10;;;2.00;;
4957;SDS011;2494;51.872;9.688;2023-07-29T08:25:54;2.03;;;1.93;;
4957;SDS011;2494;51.872;9.688;2023-07-29T08:28:39;1.83;;;1.73;;
4957;SDS011;2494;51.872;9.688;2023-07-29T08:31:25;1.70;;;1.60;;
4957;SDS011;2494;51.872;9.688;2023-07-29T08:34:11;2.50;;;1.80;;
4957;SDS011;2494;51.872;9.688;2023-07-29T08:36:56;1.80;;;1.70;;
4957;SDS011;2494;51.872;9.688;2023-07-29T08:39:41;1.57;;;1.47;;
4957;SDS011;2494;51.872;9.688;2023-07-29T08:42:27;1.50;;;1.40;;
4957;SDS011;2494;51.872;9.688;2023-07-29T08:45:13;1.27;;;1.17;;
4957;SDS011;2494;51.872;9.688;2023-07-29T08:47:59;1.30;;;1.20;;
4957;SDS011;2494;51.872;9.688;2023-07-29T08:50:48;1.47;;;1.20;;
4957;SDS011;2494;51.872;9.688;2023-07-29T08:53:35;2.57;;;1.30;;
4957;SDS011;2494;51.872;9.688;2023-07-29T08:56:19;1.43;;;1.33;;
4957;SDS011;2494;51.872;9.688;2023-07-29T08:59:05;2.03;;;1.20;;
4957;SDS011;2494;51.872;9.688;2023-07-29T09:01:50;2.23;;;1.50;;
4957;SDS011;2494;51.872;9.688;2023-07-29T09:04:39;1.63;;;1.53;;
4957;SDS011;2494;51.872;9.688;2023-07-29T09:07:26;1.60;;;1.50;;
4957;SDS011;2494;51.872;9.688;2023-07-29T09:10:11;3.97;;;1.50;;
4957;SDS011;2494;51.872;9.688;2023-07-29T09:12:57;2.10;;;2.00;;
4957;SDS011;2494;51.872;9.688;2023-07-29T09:15:42;1.80;;;1.70;;
4957;SDS011;2494;51.872;9.688;2023-07-29T09:18:28;2.03;;;1.93;;
4957;SDS011;2494;51.872;9.688;2023-07-29T09:21:16;3.70;;;2.03;;
4957;SDS011;2494;51.872;9.688;2023-07-29T09:24:03;2.70;;;2.50;;
4957;SDS011;2494;51.872;9.688;2023-07-29T09:26:49;3.53;;;3.23;;
4957;SDS011;2494;51.872;9.688;2023-07-29T09:29:39;4.30;;;4.10;;
4957;SDS011;2494;51.872;9.688;2023-07-29T09:32:24;5.40;;;5.00;;
4957;SDS011;2494;51.872;9.688;2023-07-29T09:35:10;3.60;;;3.40;;
4957;SDS011;2494;51.872;9.688;2023-07-29T09:37:56;5.30;;;4.97;;
4957;SDS011;2494;51.872;9.688;2023-07-29T09:40:42;5.23;;;4.93;;
4957;SDS011;2494;51.872;9.688;2023-07-29T09:43:29;4.43;;;4.23;;
4957;SDS011;2494;51.872;9.688;2023-07-29T09:46:15;6.07;;;5.30;;
4957;SDS011;2494;51.872;9.688;2023-07-29T09:49:00;6.00;;;5.47;;
4957;SDS011;2494;51.872;9.688;2023-07-29T09:51:46;6.10;;;5.60;;
4957;SDS011;2494;51.872;9.688;2023-07-29T09:54:31;8.23;;;6.13;;
4957;SDS011;2494;51.872;9.688;2023-07-29T09:57:18;8.30;;;7.67;;
4957;SDS011;2494;51.872;9.688;2023-07-29T10:00:04;13.27;;;9.60;;
4957;SDS011;2494;51.872;9.688;2023-07-29T10:02:54;10.93;;;10.13;;
4957;SDS011;2494;51.872;9.688;2023-07-29T10:05:40;12.93;;;11.83;;
4957;SDS011;2494;51.872;9.688;2023-07-29T10:08:26;12.73;;;11.73;;
4957;SDS011;2494;51.872;9.688;2023-07-29T10:11:12;13.57;;;12.57;;
4957;SDS011;2494;51.872;9.688;2023-07-29T10:13:58;15.53;;;14.33;;
4957;SDS011;2494;51.872;9.688;2023-07-29T10:16:45;15.90;;;14.50;;
4957;SDS011;2494;51.872;9.688;2023-07-29T10:19:31;17.40;;;15.60;;
4957;SDS011;2494;51.872;9.688;2023-07-29T10:22:15;21.33;;;19.60;;
4957;SDS011;2494;51.872;9.688;2023-07-29T10:25:03;19.87;;;18.23;;
4957;SDS011;2494;51.872;9.688;2023-07-29T10:27:49;13.93;;;13.03;;
4957;SDS011;2494;51.872;9.688;2023-07-29T10:30:39;13.60;;;12.60;;
4957;SDS011;2494;51.872;9.688;2023-07-29T10:33:24;11.73;;;10.73;;
4957;SDS011;2494;51.872;9.688;2023-07-29T10:36:09;9.47;;;8.90;;
4957;SDS011;2494;51.872;9.688;2023-07-29T10:38:55;10.30;;;9.63;;
4957;SDS011;2494;51.872;9.688;2023-07-29T10:41:56;9.47;;;8.87;;
4957;SDS011;2494;51.872;9.688;2023-07-29T10:44:48;10.60;;;8.90;;
4957;SDS011;2494;51.872;9.688;2023-07-29T10:47:38;10.10;;;9.40;;
4957;SDS011;2494;51.872;9.688;2023-07-29T10:50:23;21.73;;;20.10;;
4957;SDS011;2494;51.872;9.688;2023-07-29T10:53:08;8.70;;;8.10;;
4957;SDS011;2494;51.872;9.688;2023-07-29T10:55:53;8.50;;;8.00;;
4957;SDS011;2494;51.872;9.688;2023-07-29T10:58:41;7.63;;;7.23;;
4957;SDS011;2494;51.872;9.688;2023-07-29T11:01:27;8.53;;;7.47;;
4957;SDS011;2494;51.872;9.688;2023-07-29T11:04:27;6.73;;;6.33;;
4957;SDS011;2494;51.872;9.688;2023-07-29T11:07:19;5.73;;;5.53;;
4957;SDS011;2494;51.872;9.688;2023-07-29T11:10:11;6.30;;;5.70;;
4957;SDS011;2494;51.872;9.688;2023-07-29T11:12:56;5.80;;;5.50;;
4957;SDS011;2494;51.872;9.688;2023-07-29T11:15:42;8.87;;;8.27;;
4957;SDS011;2494;51.872;9.688;2023-07-29T11:18:28;7.40;;;7.00;;
4957;SDS011;2494;51.872;9.688;2023-07-29T11:21:15;16.10;;;15.03;;
4957;SDS011;2494;51.872;9.688;2023-07-29T11:24:00;5.47;;;5.17;;
4957;SDS011;2494;51.872;9.688;2023-07-29T11:26:46;6.43;;;5.90;;
4957;SDS011;2494;51.872;9.688;2023-07-29T11:29:31;5.80;;;5.47;;
4957;SDS011;2494;51.872;9.688;2023-07-29T11:32:16;4.93;;;4.63;;
4957;SDS011;2494;51.872;9.688;2023-07-29T11:35:02;3.90;;;3.70;;
4957;SDS011;2494;51.872;9.688;2023-07-29T11:37:49;3.73;;;3.47;;
4957;SDS011;2494;51.872;9.688;2023-07-29T11:40:34;4.00;;;3.70;;
4957;SDS011;2494;51.872;9.688;2023-07-29T11:43:19;3.43;;;3.13;;
4957;SDS011;2494;51.872;9.688;2023-07-29T11:46:04;2.93;;;2.73;;
4957;SDS011;2494;51.872;9.688;2023-07-29T11:48:49;3.03;;;2.83;;
4957;SDS011;2494;51.872;9.688;2023-07-29T11:51:34;2.43;;;2.33;;
4957;SDS011;2494;51.872;9.688;2023-07-29T11:54:21;2.40;;;2.20;;
4957;SDS011;2494;51.872;9.688;2023-07-29T11:57:06;2.20;;;2.00;;
4957;SDS011;2494;51.872;9.688;2023-07-29T11:59:52;5.90;;;2.27;;
4957;SDS011;2494;51.872;9.688;2023-07-29T12:02:38;2.43;;;2.27;;
4957;SDS011;2494;51.872;9.688;2023-07-29T12:05:24;2.47;;;1.80;;
4957;SDS011;2494;51.872;9.688;2023-07-29T12:08:09;1.70;;;1.60;;
4957;SDS011;2494;51.872;9.688;2023-07-29T12:10:56;3.90;;;2.03;;
4957;SDS011;2494;51.872;9.688;2023-07-29T12:13:41;1.93;;;1.53;;
4957;SDS011;2494;51.872;9.688;2023-07-29T12:16:26;1.77;;;1.67;;
4957;SDS011;2494;51.872;9.688;2023-07-29T12:19:17;1.60;;;1.50;;
4957;SDS011;2494;51.872;9.688;2023-07-29T12:22:03;1.37;;;1.27;;
4957;SDS011;2494;51.872;9.688;2023-07-29T12:24:50;1.63;;;1.53;;
4957;SDS011;2494;51.872;9.688;2023-07-29T12:27:37;1.50;;;1.40;;
4957;SDS011;2494;51.872;9.688;2023-07-29T12:30:22;1.23;;;1.13;;
4957;SDS011;2494;51.872;9.688;2023-07-29T12:33:08;1.30;;;1.20;;
4957;SDS011;2494;51.872;9.688;2023-07-29T12:35:53;1.30;;;1.20;;
4957;SDS011;2494;51.872;9.688;2023-07-29T12:38:38;1.43;;;1.33;;
4957;SDS011;2494;51.872;9.688;2023-07-29T12:41:23;1.50;;;1.40;;
4957;SDS011;2494;51.872;9.688;2023-07-29T12:44:09;3.47;;;1.00;;
4957;SDS011;2494;51.872;9.688;2023-07-29T12:46:54;1.30;;;1.20;;
4957;SDS011;2494;51.872;9.688;2023-07-29T12:49:39;1.87;;;1.33;;
4957;SDS011;2494;51.872;9.688;2023-07-29T12:52:24;1.30;;;1.20;;
4957;SDS011;2494;51.872;9.688;2023-07-29T12:55:10;1.10;;;1.10;;
4957;SDS011;2494;51.872;9.688;2023-07-29T12:57:57;1.20;;;1.10;;
4957;SDS011;2494;51.872;9.688;2023-07-29T13:00:44;7.87;;;1.60;;
4957;SDS011;2494;51.872;9.688;2023-07-29T13:03:29;1.20;;;1.10;;
4957;SDS011;2494;51.872;9.688;2023-07-29T13:06:14;1.17;;;1.07;;
4957;SDS011;2494;51.872;9.688;2023-07-29T13:09:01;1.43;;;1.33;;
4957;SDS011;2494;51.872;9.688;2023-07-29T13:11:46;4.73;;;1.13;;
4957;SDS011;2494;51.872;9.688;2023-07-29T13:14:31;1.53;;;1.10;;
4957;SDS011;2494;51.872;9.688;2023-07-29T13:17:18;2.50;;;1.50;;
4957;SDS011;2494;51.872;9.688;2023-07-29T13:20:03;1.50;;;1.40;;
4957;SDS011;2494;51.872;9.688;2023-07-29T13:22:48;1.30;;;1.20;;
4957;SDS011;2494;51.872;9.688;2023-07-29T13:25:33;1.20;;;1.10;;
4957;SDS011;2494;51.872;9.688;2023-07-29T13:28:18;1.30;;;1.20;;
4957;SDS011;2494;51.872;9.688;2023-07-29T13:31:04;1.40;;;1.30;;
4957;SDS011;2494;51.872;9.688;2023-07-29T13:33:53;1.57;;;1.40;;
4957;SDS011;2494;51.872;9.688;2023-07-29T13:36:39;1.80;;;1.33;;
4957;SDS011;2494;51.872;9.688;2023-07-29T13:39:24;1.70;;;1.23;;
4957;SDS011;2494;51.872;9.688;2023-07-29T13:42:09;1.37;;;1.20;;
4957;SDS011;2494;51.872;9.688;2023-07-29T13:44:54;1.57;;;1.47;;
4957;SDS011;2494;51.872;9.688;2023-07-29T13:47:39;1.70;;;1.33;;
4957;SDS011;2494;51.872;9.688;2023-07-29T13:50:25;1.20;;;1.10;;
4957;SDS011;2494;51.872;9.688;2023-07-29T13:53:11;1.50;;;1.40;;
4957;SDS011;2494;51.872;9.688;2023-07-29T13:55:56;1.97;;;1.30;;
4957;SDS011;2494;51.872;9.688;2023-07-29T13:58:41;1.40;;;1.30;;
4957;SDS011;2494;51.872;9.688;2023-07-29T14:01:26;1.57;;;1.47;;
4957;SDS011;2494;51.872;9.688;2023-07-29T14:04:10;1.30;;;1.20;;
4957;SDS011;2494;51.872;9.688;2023-07-29T14:06:57;1.30;;;1.20;;
4957;SDS011;2494;51.872;9.688;2023-07-29T14:09:42;1.60;;;1.50;;
4957;SDS011;2494;51.872;9.688;2023-07-29T14:12:28;2.20;;;1.57;;
4957;SDS011;2494;51.872;9.688;2023-07-29T14:15:13;3.90;;;1.43;;
4957;SDS011;2494;51.872;9.688;2023-07-29T14:17:58;1.63;;;1.53;;
4957;SDS011;2494;51.872;9.688;2023-07-29T14:20:43;1.70;;;1.50;;
4957;SDS011;2494;51.872;9.688;2023-07-29T14:23:29;1.50;;;1.40;;
4957;SDS011;2494;51.872;9.688;2023-07-29T14:26:16;1.60;;;1.50;;
4957;SDS011;2494;51.872;9.688;2023-07-29T14:29:01;2.90;;;1.37;;
4957;SDS011;2494;51.872;9.688;2023-07-29T14:31:46;1.90;;;1.80;;
4957;SDS011;2494;51.872;9.688;2023-07-29T14:34:31;2.00;;;1.90;;
4957;SDS011;2494;51.872;9.688;2023-07-29T14:37:16;1.60;;;1.50;;
4957;SDS011;2494;51.872;9.688;2023-07-29T14:40:02;1.73;;;1.63;;
4957;SDS011;2494;51.872;9.688;2023-07-29T14:42:48;2.00;;;1.90;;
4957;SDS011;2494;51.872;9.688;2023-07-29T14:45:33;1.83;;;1.73;;
4957;SDS011;2494;51.872;9.688;2023-07-29T14:48:18;1.67;;;1.57;;
4957;SDS011;2494;51.872;9.688;2023-07-29T14:51:03;1.63;;;1.53;;
4957;SDS011;2494;51.872;9.688;2023-07-29T14:53:48;1.80;;;1.70;;
4957;SDS011;2494;51.872;9.688;2023-07-29T14:56:34;2.67;;;1.47;;
4957;SDS011;2494;51.872;9.688;2023-07-29T14:59:19;1.60;;;1.50;;
4957;SDS011;2494;51.872;9.688;2023-07-29T15:02:04;1.67;;;1.40;;
4957;SDS011;2494;51.872;9.688;2023-07-29T15:04:49;1.90;;;1.80;;
4957;SDS011;2494;51.872;9.688;2023-07-29T15:07:34;2.90;;;1.30;;
4957;SDS011;2494;51.872;9.688;2023-07-29T15:10:19;1.67;;;1.57;;
4957;SDS011;2494;51.872;9.688;2023-07-29T15:13:06;3.00;;;1.60;;
4957;SDS011;2494;51.872;9.688;2023-07-29T15:15:52;1.80;;;1.70;;
4957;SDS011;2494;51.872;9.688;2023-07-29T15:18:37;4.30;;;1.93;;
4957;SDS011;2494;51.872;9.688;2023-07-29T15:21:22;1.60;;;1.50;;
4957;SDS011;2494;51.872;9.688;2023-07-29T15:24:07;3.23;;;1.47;;
4957;SDS011;2494;51.872;9.688;2023-07-29T15:26:52;1.70;;;1.53;;
4957;SDS011;2494;51.872;9.688;2023-07-29T15:29:39;1.70;;;1.60;;
4957;SDS011;2494;51.872;9.688;2023-07-29T15:32:24;2.23;;;1.50;;
4957;SDS011;2494;51.872;9.688;2023-07-29T15:35:09;1.40;;;1.30;;
4957;SDS011;2494;51.872;9.688;2023-07-29T15:37:54;1.47;;;1.37;;
4957;SDS011;2494;51.872;9.688;2023-07-29T15:40:39;1.70;;;1.60;;
4957;SDS011;2494;51.872;9.688;2023-07-29T15:43:23;1.53;;;1.43;;
4957;SDS011;2494;51.872;9.688;2023-07-29T15:46:10;1.60;;;1.50;;
4957;SDS011;2494;51.872;9.688;2023-07-29T15:48:55;1.77;;;1.67;;
4957;SDS011;2494;51.872;9.688;2023-07-29T15:51:43;1.80;;;1.70;;
4957;SDS011;2494;51.872;9.688;2023-07-29T15:54:28;1.67;;;1.57;;
4957;SDS011;2494;51.872;9.688;2023-07-29T15:57:13;1.73;;;1.63;;
4957;SDS011;2494;51.872;9.688;2023-07-29T15:59:58;1.83;;;1.73;;
4957;SDS011;2494;51.872;9.688;2023-07-29T16:02:44;2.23;;;2.13;;
4957;SDS011;2494;51.872;9.688;2023-07-29T16:05:29;2.10;;;2.00;;
4957;SDS011;2494;51.872;9.688;2023-07-29T16:08:15;3.33;;;2.10;;
4957;SDS011;2494;51.872;9.688;2023-07-29T16:11:00;2.13;;;2.03;;
4957;SDS011;2494;51.872;9.688;2023-07-29T16:13:45;2.20;;;2.00;;
4957;SDS011;2494;51.872;9.688;2023-07-29T16:16:29;2.27;;;2.17;;
4957;SDS011;2494;51.872;9.688;2023-07-29T16:19:22;2.00;;;1.90;;
4957;SDS011;2494;51.872;9.688;2023-07-29T16:22:07;2.20;;;2.10;;
4957;SDS011;2494;51.872;9.688;2023-07-29T16:24:52;2.37;;;2.17;;
4957;SDS011;2494;51.872;9.688;2023-07-29T16:27:46;2.00;;;1.90;;
4957;SDS011;2494;51.872;9.688;2023-07-29T16:30:39;2.00;;;1.90;;
4957;SDS011;2494;51.872;9.688;2023-07-29T16:33:25;2.13;;;1.90;;
4957;SDS011;2494;51.872;9.688;2023-07-29T16:36:12;2.53;;;2.30;;
4957;SDS011;2494;51.872;9.688;2023-07-29T16:38:57;2.30;;;2.20;;
4957;SDS011;2494;51.872;9.688;2023-07-29T16:41:42;2.30;;;2.20;;
4957;SDS011;2494;51.872;9.688;2023-07-29T16:44:27;2.43;;;2.23;;
4957;SDS011;2494;51.872;9.688;2023-07-29T16:47:12;2.20;;;2.10;;
4957;SDS011;2494;51.872;9.688;2023-07-29T16:49:57;2.80;;;1.90;;
4957;SDS011;2494;51.872;9.688;2023-07-29T16:52:44;2.60;;;2.40;;
4957;SDS011;2494;51.872;9.688;2023-07-29T16:55:29;2.37;;;2.27;;
4957;SDS011;2494;51.872;9.688;2023-07-29T16:58:14;2.40;;;2.20;;
4957;SDS011;2494;51.872;9.688;2023-07-29T17:00:59;2.90;;;2.70;;
4957;SDS011;2494;51.872;9.688;2023-07-29T17:03:44;2.50;;;2.30;;
4957;SDS011;2494;51.872;9.688;2023-07-29T17:06:29;3.77;;;2.70;;
4957;SDS011;2494;51.872;9.688;2023-07-29T17:09:16;2.93;;;2.70;;